Time;durP1;ratioP1;P1;durP2;ratioP2;P2;SDS_P1;SDS_P2;PMS_P1;PMS_P2;Temp;Humidity;BMP_temperature;BMP_pressure;BME280_temperature;BME280_humidity;BME280_pressure;Samples;Min_cycle;Max_cycle;Signal;HPM_P1;HPM_P2
2022/03/03 00:00:45;;;;;;;18.00;10.15;;;;;;;0.06;62.52;100192.41;12202948;19;20851;-79
2022/03/03 00:04:47;;;;;;;17.70;9.50;;;;;;;0.05;62.76;100197.00;12194495;19;20013;-79
2022/03/03 00:08:49;;;;;;;16.20;9.60;;;;;;;0.04;62.85;100184.47;12186682;19;20558;-79
2022/03/03 00:12:51;;;;;;;16.85;9.32;;;;;;;0.04;63.02;100189.06;12208298;19;20469;-79
2022/03/03 00:16:53;;;;;;;18.15;9.90;;;;;;;0.03;63.19;100190.91;12194194;19;20466;-78
2022/03/03 00:20:55;;;;;;;18.55;9.38;;;;;;;0.02;63.33;100185.66;12176430;19;20010;-79
2022/03/03 00:24:56;;;;;;;17.30;9.35;;;;;;;0.02;63.16;100191.91;12204555;19;20021;-79
2022/03/03 00:28:59;;;;;;;18.80;9.83;;;;;;;-0.01;63.44;100193.09;12203871;19;20011;-79
2022/03/03 00:33:00;;;;;;;17.92;9.40;;;;;;;-0.01;63.36;100182.25;12175345;19;20074;-78
2022/03/03 00:37:02;;;;;;;17.45;9.10;;;;;;;-0.01;63.64;100187.69;12201909;19;20018;-80
2022/03/03 00:41:04;;;;;;;15.63;9.13;;;;;;;0.01;63.74;100194.81;12205103;19;20011;-80
2022/03/03 00:45:10;;;;;;;17.38;8.77;;;;;;;-0.01;63.80;100193.09;12168489;19;20042;-78
2022/03/03 00:49:11;;;;;;;18.75;9.73;;;;;;;-0.04;63.89;100188.03;12202712;19;20010;-78
2022/03/03 00:53:13;;;;;;;20.17;9.50;;;;;;;-0.06;63.94;100181.97;12200228;19;20010;-79
2022/03/03 00:57:15;;;;;;;19.58;10.20;;;;;;;-0.06;64.47;100179.25;12175265;19;20346;-79
2022/03/03 01:01:18;;;;;;;18.03;9.07;;;;;;;-0.05;64.71;100180.94;12200655;19;20023;-79
2022/03/03 01:05:20;;;;;;;18.70;9.90;;;;;;;-0.03;64.74;100178.03;12198889;19;20023;-79
2022/03/03 01:09:22;;;;;;;19.43;9.47;;;;;;;-0.05;64.77;100170.09;12182659;19;20022;-79
2022/03/03 01:13:24;;;;;;;18.10;9.32;;;;;;;-0.15;64.94;100174.88;12205172;19;20074;-79
2022/03/03 01:17:26;;;;;;;19.88;9.93;;;;;;;-0.29;65.47;100170.97;12183000;19;20047;-79
2022/03/03 01:21:27;;;;;;;21.45;10.02;;;;;;;-0.37;66.10;100162.00;12185193;19;20081;-79
2022/03/03 01:25:29;;;;;;;21.52;9.02;;;;;;;-0.44;66.27;100158.31;12198491;19;20105;-79
2022/03/03 01:29:35;;;;;;;24.17;10.52;;;;;;;-0.47;66.54;100157.63;12195811;19;20011;-78
2022/03/03 01:33:36;;;;;;;17.85;9.85;;;;;;;-0.51;66.87;100139.16;12203077;19;20078;-79
2022/03/03 01:37:38;;;;;;;19.63;10.20;;;;;;;-0.49;66.60;100146.09;12217283;19;20098;-79
2022/03/03 01:41:41;;;;;;;18.90;10.32;;;;;;;-0.42;66.82;100146.25;12182714;19;20021;-78
2022/03/03 01:45:43;;;;;;;18.35;10.13;;;;;;;-0.36;66.89;100137.47;12218357;19;20030;-80
2022/03/03 01:49:46;;;;;;;21.00;10.85;;;;;;;-0.29;67.63;100137.63;12210583;19;20026;-79
2022/03/03 01:53:48;;;;;;;20.85;10.88;;;;;;;-0.23;66.76;100123.41;12182598;19;20101;-79
2022/03/03 01:57:50;;;;;;;18.73;10.32;;;;;;;-0.19;66.99;100123.91;12209755;19;20098;-78
2022/03/03 02:01:52;;;;;;;20.60;10.48;;;;;;;-0.17;67.00;100116.47;12203423;19;20027;-79
2022/03/03 02:05:54;;;;;;;23.90;11.23;;;;;;;-0.19;67.02;100105.78;12188787;19;20026;-79
2022/03/03 02:09:56;;;;;;;20.77;10.27;;;;;;;-0.23;68.15;100099.03;12193794;19;20031;-79
2022/03/03 02:13:58;;;;;;;22.10;11.27;;;;;;;-0.31;67.82;100102.59;12214531;19;20448;-79
2022/03/03 02:18:00;;;;;;;21.83;10.57;;;;;;;-0.36;68.23;100104.13;12191480;19;20468;-79
2022/03/03 02:22:02;;;;;;;14.70;7.60;;;;;;;-0.43;69.08;100097.72;12206623;19;20010;-78
2022/03/03 02:26:15;;;;;;;19.02;10.82;;;;;;;-0.49;68.95;100102.78;12208137;19;20350;-79
2022/03/03 02:30:18;;;;;;;22.92;11.15;;;;;;;-0.55;69.63;100095.34;12191793;19;20085;-79
2022/03/03 02:34:23;;;;;;;23.50;11.57;;;;;;;-0.57;69.57;100097.38;12206708;19;20011;-79
2022/03/03 02:38:25;;;;;;;23.33;11.52;;;;;;;-0.59;69.41;100093.19;12212107;19;20014;-79
2022/03/03 02:42:27;;;;;;;20.73;10.63;;;;;;;-0.64;69.13;100104.50;12190460;19;20021;-78
2022/03/03 02:46:30;;;;;;;21.63;10.40;;;;;;;-0.67;69.33;100101.31;12207593;19;20021;-79
2022/03/03 02:50:31;;;;;;;18.40;9.73;;;;;;;-0.70;69.89;100097.91;12202139;19;20010;-79
2022/03/03 02:54:33;;;;;;;21.58;10.40;;;;;;;-0.70;69.72;100088.94;12214371;19;20176;-79
2022/03/03 02:58:35;;;;;;;24.23;11.15;;;;;;;-0.70;70.13;100084.38;12204495;19;20031;-79
2022/03/03 03:02:37;;;;;;;20.70;10.82;;;;;;;-0.72;70.33;100089.09;12177818;19;20764;-78
2022/03/03 03:06:39;;;;;;;22.25;10.07;;;;;;;-0.79;70.88;100076.44;12197916;19;20478;-79
2022/03/03 03:10:42;;;;;;;21.98;11.05;;;;;;;-0.86;71.28;100070.88;12210401;19;20014;-79
2022/03/03 03:14:45;;;;;;;19.98;10.30;;;;;;;-0.93;71.16;100062.56;12187253;19;20501;-79
2022/03/03 03:18:46;;;;;;;22.30;10.60;;;;;;;-0.95;71.15;100064.63;12198997;19;20015;-78
2022/03/03 03:22:49;;;;;;;20.20;10.15;;;;;;;-1.00;71.42;100050.75;12218083;19;20035;-78
2022/03/03 03:26:51;;;;;;;22.80;10.60;;;;;;;-1.02;71.74;100044.66;12226836;19;20012;-78
2022/03/03 03:30:52;;;;;;;18.88;10.48;;;;;;;-0.99;71.40;100043.47;12247233;19;20014;-78
2022/03/03 03:34:55;;;;;;;22.15;11.52;;;;;;;-0.97;71.31;100047.69;12238151;19;20015;-79
2022/03/03 03:38:57;;;;;;;22.30;11.73;;;;;;;-0.92;71.16;100048.03;12218992;19;20007;-78
2022/03/03 03:42:59;;;;;;;21.27;9.55;;;;;;;-0.82;71.14;100049.72;12215522;19;20443;-78
2022/03/03 03:47:01;;;;;;;22.50;10.65;;;;;;;-0.77;71.90;100050.91;12211118;19;20422;-77
2022/03/03 03:51:03;;;;;;;15.98;8.40;;;;;;;-0.88;71.63;100050.41;12178214;19;20425;-78
2022/03/03 03:55:07;;;;;;;20.38;9.98;;;;;;;-1.01;72.35;100051.78;12202740;19;20078;-78
2022/03/03 03:59:08;;;;;;;21.25;11.25;;;;;;;-1.10;72.33;100047.38;12202635;19;20039;-78
2022/03/03 04:03:10;;;;;;;21.08;10.73;;;;;;;-1.20;72.48;100049.38;12181076;19;20035;-79
2022/03/03 04:07:12;;;;;;;19.52;10.32;;;;;;;-1.32;73.24;100045.31;12208759;19;20021;-78
2022/03/03 04:11:15;;;;;;;20.83;11.02;;;;;;;-1.39;74.29;100045.16;12213151;19;20026;-79
2022/03/03 04:15:17;;;;;;;21.40;10.95;;;;;;;-1.48;74.26;100038.88;12176287;19;20010;-78
2022/03/03 04:19:19;;;;;;;24.60;11.80;;;;;;;-1.56;74.77;100049.66;12201766;19;20007;-78
2022/03/03 04:23:22;;;;;;;23.98;11.65;;;;;;;-1.66;74.08;100051.69;12200457;19;20383;-78
2022/03/03 04:27:25;;;;;;;20.42;10.57;;;;;;;-1.70;74.54;100053.84;12173285;19;20015;-79
2022/03/03 04:31:27;;;;;;;21.95;10.95;;;;;;;-1.70;75.14;100066.50;12205896;19;20007;-78
2022/03/03 04:35:30;;;;;;;25.48;11.32;;;;;;;-1.71;75.32;100062.97;12194279;19;20014;-79
2022/03/03 04:39:32;;;;;;;23.45;10.95;;;;;;;-1.71;75.54;100056.72;12184657;19;20099;-78
2022/03/03 04:43:34;;;;;;;19.80;10.48;;;;;;;-1.70;75.78;100042.19;12208612;19;20027;-79
2022/03/03 04:47:36;;;;;;;20.95;11.23;;;;;;;-1.70;75.78;100039.50;12170323;19;20018;-79
2022/03/03 04:51:39;;;;;;;20.98;10.95;;;;;;;-1.70;75.38;100029.53;12198749;19;20024;-79
2022/03/03 04:55:40;;;;;;;23.67;11.38;;;;;;;-1.73;75.46;100027.16;12192863;19;20014;-79
2022/03/03 04:59:42;;;;;;;23.70;11.30;;;;;;;-1.73;75.88;100016.34;12174494;19;20074;-78
2022/03/03 05:03:44;;;;;;;24.08;10.38;;;;;;;-1.68;75.37;100000.50;12188275;19;20029;-78
2022/03/03 05:07:45;;;;;;;25.80;11.25;;;;;;;-1.57;76.28;99972.31;12194159;19;20002;-79
2022/03/03 05:11:47;;;;;;;20.73;11.13;;;;;;;-1.34;75.49;99972.47;12178544;19;20010;-78
2022/03/03 05:15:49;;;;;;;22.60;10.98;;;;;;;-1.23;75.50;99965.91;12200739;19;20050;-78
2022/03/03 05:19:51;;;;;;;26.70;11.05;;;;;;;-1.20;74.28;99962.84;12198968;19;20018;-78
2022/03/03 05:23:53;;;;;;;32.03;11.55;;;;;;;-1.20;74.35;99966.41;12167787;19;20896;-79
2022/03/03 05:27:55;;;;;;;20.98;10.55;;;;;;;-1.19;74.00;99967.22;12202541;19;20018;-78
2022/03/03 05:31:59;;;;;;;24.42;10.50;;;;;;;-1.18;74.01;99980.59;12206531;19;20410;-79
2022/03/03 05:36:05;;;;;;;24.95;11.50;;;;;;;-1.27;73.81;99984.31;12179372;19;20078;-78
2022/03/03 05:40:07;;;;;;;23.52;10.75;;;;;;;-1.39;75.76;99989.22;12192278;19;20026;-79
2022/03/03 05:44:14;;;;;;;20.80;10.85;;;;;;;-1.41;75.03;100007.47;12201654;19;20023;-78
2022/03/03 05:48:27;;;;;;;28.13;11.15;;;;;;;-1.45;75.60;100003.41;12183494;19;20074;-79
2022/03/03 05:52:30;;;;;;;22.23;11.40;;;;;;;-1.52;75.20;99996.13;12192240;19;20021;-78
2022/03/03 05:56:37;;;;;;;24.60;10.43;;;;;;;-1.60;75.43;100005.09;12190283;19;20070;-79
2022/03/03 06:00:38;;;;;;;21.33;10.60;;;;;;;-1.64;76.22;100009.97;12187107;19;20391;-79
2022/03/03 06:04:40;;;;;;;21.93;11.20;;;;;;;-1.67;75.83;100001.34;12196046;19;20385;-79
2022/03/03 06:09:02;;;;;;;21.70;10.95;;;;;;;-1.71;75.81;100019.75;12167495;19;20121;-79
2022/03/03 06:13:15;;;;;;;25.77;10.73;;;;;;;-1.80;76.43;100031.53;12202654;19;20031;-79
2022/03/03 06:17:23;;;;;;;28.50;10.25;;;;;;;-1.86;77.92;100027.63;12212336;19;20010;-80
2022/03/03 06:21:27;;;;;;;27.92;11.85;;;;;;;-1.85;77.36;100023.91;12187259;19;20003;-79
2022/03/03 06:25:31;;;;;;;19.80;11.13;;;;;;;-1.83;77.45;100021.91;12200906;19;20023;-79
2022/03/03 06:29:33;;;;;;;23.87;11.53;;;;;;;-1.79;77.02;100026.97;12192189;19;20002;-80
2022/03/03 06:33:35;;;;;;;20.92;11.38;;;;;;;-1.74;76.72;100024.63;12205629;19;20010;-80
2022/03/03 06:37:37;;;;;;;19.73;9.98;;;;;;;-1.70;77.04;100010.63;12205077;19;20007;-80
2022/03/03 06:41:38;;;;;;;22.15;11.18;;;;;;;-1.62;77.02;100017.91;12172764;19;20476;-79
2022/03/03 06:45:40;;;;;;;24.48;11.20;;;;;;;-1.61;77.86;100023.16;12213814;19;20085;-80
2022/03/03 06:49:42;;;;;;;25.10;11.65;;;;;;;-1.61;77.18;100022.28;12204723;19;20085;-80
2022/03/03 06:53:55;;;;;;;24.52;11.48;;;;;;;-1.53;77.32;100032.28;12190463;19;20007;-80
2022/03/03 06:57:58;;;;;;;21.35;10.70;;;;;;;-1.43;77.08;100030.25;12208869;19;20511;-80
2022/03/03 07:02:02;;;;;;;25.75;11.30;;;;;;;-1.33;77.34;100027.41;12209836;19;20003;-80
2022/03/03 07:06:04;;;;;;;24.98;11.63;;;;;;;-1.27;77.52;100032.16;12186934;19;20010;-80
2022/03/03 07:10:07;;;;;;;23.35;10.60;;;;;;;-1.20;77.64;100031.28;12214232;19;20006;-80
2022/03/03 07:14:10;;;;;;;24.48;11.40;;;;;;;-1.06;77.23;100026.25;12211618;19;20306;-80
2022/03/03 07:18:17;;;;;;;22.33;10.70;;;;;;;-0.85;77.63;100023.00;12187145;19;20066;-80
2022/03/03 07:22:35;;;;;;;25.92;12.05;;;;;;;-0.73;76.78;100029.75;12206307;19;20021;-80
2022/03/03 07:26:37;;;;;;;24.85;11.13;;;;;;;-0.57;75.85;100029.72;12194314;19;20019;-80
2022/03/03 07:30:41;;;;;;;;;;;;;;;-0.35;75.15;100027.31;12218226;19;20007;-80
2022/03/03 07:34:44;;;;;;;;;;;;;;;-0.21;73.72;100012.19;12214927;19;19917;-80
2022/03/03 07:38:56;;;;;;;20.20;10.68;;;;;;;-0.12;74.08;100027.38;12200556;19;19917;-80
2022/03/03 07:42:59;;;;;;;24.45;10.85;;;;;;;0.07;74.54;100020.72;12221859;19;20007;-80
2022/03/03 07:47:02;;;;;;;24.13;11.27;;;;;;;0.28;74.44;100023.63;12222919;19;20011;-80
2022/03/03 07:51:04;;;;;;;;;;;;;;;0.45;74.57;100022.53;12194434;19;20021;-80
2022/03/03 07:55:07;;;;;;;21.55;10.93;;;;;;;0.61;73.63;100018.00;12213291;19;19910;-81
2022/03/03 07:59:16;;;;;;;25.80;12.65;;;;;;;0.74;73.12;100001.97;12211989;19;20010;-81
2022/03/03 08:03:25;;;;;;;28.52;16.35;;;;;;;0.91;72.81;100008.13;12194445;19;20452;-80
2022/03/03 08:07:28;;;;;;;22.25;13.18;;;;;;;1.11;72.35;100005.75;12208093;19;20006;-81
2022/03/03 08:11:35;;;;;;;31.38;16.60;;;;;;;1.28;71.84;100017.28;12182336;19;20006;-80
2022/03/03 08:15:38;;;;;;;30.50;16.60;;;;;;;1.47;71.55;100011.31;12242281;19;20023;-80
2022/03/03 08:19:44;;;;;;;27.25;13.60;;;;;;;1.78;70.85;100008.41;12242287;19;20007;-81
2022/03/03 08:23:46;;;;;;;24.90;12.77;;;;;;;2.11;69.38;100018.03;12176172;19;20006;-81
2022/03/03 08:27:49;;;;;;;62.85;36.75;;;;;;;2.41;68.49;100032.41;12213920;19;20014;-80
2022/03/03 08:31:56;;;;;;;25.67;14.18;;;;;;;2.71;67.64;100028.59;12203732;19;20030;-81
2022/03/03 08:36:01;;;;;;;25.92;14.20;;;;;;;3.05;66.21;100035.19;12205341;19;19999;-81
2022/03/03 08:40:08;;;;;;;22.52;11.65;;;;;;;3.37;64.78;100027.50;12182595;19;20090;-81
2022/03/03 08:44:12;;;;;;;19.75;11.27;;;;;;;3.72;63.50;100031.09;12205193;19;20465;-82
2022/03/03 08:48:19;;;;;;;18.20;10.90;;;;;;;4.05;62.52;100030.44;12208664;19;20003;-80
2022/03/03 08:52:22;;;;;;;41.55;18.80;;;;;;;4.18;59.13;100027.78;12184125;19;20500;-81
2022/03/03 08:56:29;;;;;;;22.20;12.45;;;;;;;4.41;58.99;100032.91;12203444;19;20083;-81
2022/03/03 09:00:31;;;;;;;19.08;9.93;;;;;;;4.72;58.73;100035.09;12216650;19;20014;-81
2022/03/03 09:04:36;;;;;;;23.77;11.05;;;;;;;4.98;57.05;100023.38;12187009;19;19998;-81
2022/03/03 09:08:38;;;;;;;22.15;11.55;;;;;;;5.22;56.29;100032.03;12215879;19;20006;-81
2022/03/03 09:12:40;;;;;;;24.30;11.77;;;;;;;5.37;56.51;100029.91;12227118;19;20018;-81
2022/03/03 09:16:44;;;;;;;28.45;11.70;;;;;;;5.61;55.87;100013.94;12187965;19;20018;-81
2022/03/03 09:20:46;;;;;;;20.88;11.32;;;;;;;5.78;52.54;100012.44;12218048;19;20019;-80
2022/03/03 09:24:47;;;;;;;19.98;11.20;;;;;;;5.89;51.35;100014.50;12212280;19;20015;-81
2022/03/03 09:28:49;;;;;;;20.83;11.93;;;;;;;6.01;51.15;100014.72;12191356;19;20035;-81
2022/03/03 09:32:51;;;;;;;19.70;11.25;;;;;;;6.01;51.18;100019.31;12201062;19;20373;-81
2022/03/03 09:36:55;;;;;;;20.65;11.23;;;;;;;6.21;50.19;100005.59;12210144;19;20013;-81
2022/03/03 09:40:57;;;;;;;18.73;11.00;;;;;;;6.34;49.60;99992.69;12201899;19;20006;-81
2022/03/03 09:44:59;;;;;;;23.63;12.83;;;;;;;6.45;49.67;99982.94;12212724;19;20022;-81
2022/03/03 09:49:00;;;;;;;20.57;11.27;;;;;;;6.71;49.34;99978.38;12202672;19;20002;-81
2022/03/03 09:53:09;;;;;;;23.63;12.35;;;;;;;6.85;49.23;99988.19;12210406;19;20003;-81
2022/03/03 09:57:12;;;;;;;23.08;12.02;;;;;;;6.78;47.43;99982.75;12219052;19;20014;-81
2022/03/03 10:01:18;;;;;;;19.77;11.40;;;;;;;7.02;49.23;99974.78;12190988;19;20054;-81
2022/03/03 10:05:33;;;;;;;21.58;11.02;;;;;;;7.31;47.97;99967.78;12225672;19;20010;-81
2022/03/03 10:14:06;;;;;;;18.42;11.30;;;;;;;7.61;46.96;99965.19;12200016;19;20018;-82
2022/03/03 10:18:13;;;;;;;20.38;11.93;;;;;;;7.58;45.04;99953.81;12223613;19;20002;-81
2022/03/03 10:22:16;;;;;;;21.17;12.63;;;;;;;7.75;46.17;99954.91;12204240;19;20046;-81
2022/03/03 10:26:38;;;;;;;21.67;9.95;;;;;;;7.91;45.26;99954.31;12234131;19;20070;-82
2022/03/03 10:30:48;;;;;;;17.40;11.40;;;;;;;8.05;44.10;99960.47;12233410;19;20011;-81
2022/03/03 10:34:53;;;;;;;17.90;10.57;;;;;;;8.19;43.40;99961.16;12204159;19;20451;-82
2022/03/03 10:39:00;;;;;;;19.65;10.23;;;;;;;8.29;43.04;99946.88;12222550;19;20019;-82
2022/03/03 10:43:04;;;;;;;19.02;10.80;;;;;;;8.31;43.31;99948.31;12205547;19;20018;-82
2022/03/03 10:47:12;;;;;;;25.00;12.63;;;;;;;8.49;42.36;99947.47;12216564;19;20018;-82
2022/03/03 10:51:25;;;;;;;21.13;11.15;;;;;;;8.64;42.24;99952.53;12220150;19;20010;-81
2022/03/03 10:55:30;;;;;;;19.90;11.97;;;;;;;8.62;42.10;99951.94;12198600;19;21859;-82
2022/03/03 10:59:35;;;;;;;17.77;11.50;;;;;;;8.63;41.01;99937.97;12222910;19;20034;-82
2022/03/03 11:03:41;;;;;;;20.48;11.00;;;;;;;8.77;42.00;99948.75;12212727;19;20439;-83
2022/03/03 11:07:44;;;;;;;;;;;;;;;8.80;39.94;99940.88;12196565;19;20024;-82
2022/03/03 11:11:46;;;;;;;15.73;10.43;;;;;;;9.05;41.40;99934.38;12207263;19;19940;-83
2022/03/03 11:15:52;;;;;;;24.00;12.70;;;;;;;9.25;40.93;99934.00;12207145;19;20018;-81
2022/03/03 11:19:59;;;;;;;20.35;10.68;;;;;;;9.45;40.87;99929.00;12181223;19;20122;-82
2022/03/03 11:24:01;;;;;;;23.98;13.05;;;;;;;9.74;40.66;99929.09;12200502;19;20030;-83
2022/03/03 11:28:06;;;;;;;23.83;13.52;;;;;;;9.90;39.89;99919.25;12189623;19;20007;-83
2022/03/03 11:32:17;;;;;;;19.23;11.77;;;;;;;10.05;39.90;99919.56;12211808;19;20014;-83
2022/03/03 11:36:28;;;;;;;16.20;10.27;;;;;;;10.10;39.10;99913.34;12205053;19;20017;-82
2022/03/03 11:40:37;;;;;;;19.00;11.35;;;;;;;10.13;38.07;99918.34;12192183;19;20006;-83
2022/03/03 11:44:42;;;;;;;23.73;12.30;;;;;;;10.24;38.15;99907.31;12214971;19;20049;-83
2022/03/03 11:48:44;;;;;;;17.23;10.07;;;;;;;10.45;36.79;99907.72;12207993;19;20053;-83
2022/03/03 11:53:06;;;;;;;18.52;10.23;;;;;;;10.82;36.44;99904.53;12194113;19;20014;-84
2022/03/03 11:57:28;;;;;;;23.98;12.80;;;;;;;11.00;36.47;99896.00;12203774;19;19998;-84
2022/03/03 12:02:03;;;;;;;16.73;11.32;;;;;;;11.46;36.11;99893.97;12193930;19;20014;-84
2022/03/03 12:06:11;;;;;;;15.93;9.75;;;;;;;12.15;35.78;99893.53;12202803;19;20006;-85
2022/03/03 12:10:19;;;;;;;17.67;10.13;;;;;;;12.86;33.45;99892.59;12181382;19;20561;-85
2022/03/03 12:14:32;;;;;;;16.42;9.93;;;;;;;13.36;32.87;99891.38;12206755;19;20440;-84
2022/03/03 12:18:38;;;;;;;15.75;10.02;;;;;;;13.39;29.68;99885.31;12208472;19;20002;-86
2022/03/03 12:23:02;;;;;;;12.57;8.18;;;;;;;13.20;28.16;99885.69;12190514;19;20017;-83
2022/03/03 12:27:09;;;;;;;11.65;8.07;;;;;;;12.85;27.02;99882.63;12205388;19;20014;-81
2022/03/03 12:31:40;;;;;;;10.77;8.35;;;;;;;13.59;28.49;99879.03;12187979;19;20014;-81
2022/03/03 12:35:46;;;;;;;14.98;9.88;;;;;;;14.35;28.85;99892.41;12195675;19;20007;-82
2022/03/03 12:39:48;;;;;;;13.23;8.85;;;;;;;14.54;27.06;99882.50;12210593;19;20456;-81
2022/03/03 12:43:52;;;;;;;11.68;9.13;;;;;;;14.75;26.93;99872.28;12184088;19;20010;-81
2022/03/03 12:47:58;;;;;;;14.68;9.65;;;;;;;15.45;26.39;99866.97;12195325;19;20486;-81
2022/03/03 12:52:03;;;;;;;13.45;9.50;;;;;;;15.81;27.21;99858.56;12177655;19;20014;-82
2022/03/03 12:56:06;;;;;;;12.45;9.93;;;;;;;16.29;25.82;99856.09;12190920;19;20102;-82
2022/03/03 13:00:12;;;;;;;13.50;8.93;;;;;;;16.74;25.63;99850.53;12200028;19;20072;-82
2022/03/03 13:04:20;;;;;;;14.95;10.23;;;;;;;17.39;26.22;99853.06;12178903;19;20472;-82
2022/03/03 13:08:32;;;;;;;13.23;8.65;;;;;;;17.25;24.36;99847.34;12203891;19;20006;-81
2022/03/03 13:12:44;;;;;;;12.75;9.15;;;;;;;17.04;22.85;99836.41;12205181;19;20066;-81
2022/03/03 13:16:46;;;;;;;12.65;9.40;;;;;;;16.83;24.08;99838.50;12169112;19;20013;-81
2022/03/03 13:20:51;;;;;;;15.47;9.97;;;;;;;16.99;23.66;99835.63;12201017;19;20031;-81
2022/03/03 13:25:13;;;;;;;13.45;9.07;;;;;;;16.83;23.86;99816.25;12208699;19;20028;-81
2022/03/03 13:29:22;;;;;;;15.02;9.85;;;;;;;16.16;25.17;99803.94;12196997;19;20014;-81
2022/03/03 13:33:52;;;;;;;18.42;9.35;;;;;;;14.77;25.05;99808.19;12212746;19;20030;-81
2022/03/03 13:38:05;;;;;;;14.18;8.95;;;;;;;14.35;25.32;99812.03;12192661;19;20011;-82
2022/03/03 13:42:15;;;;;;;12.50;8.27;;;;;;;14.37;24.96;99829.22;12208755;19;20010;-81
2022/03/03 13:46:31;;;;;;;12.18;8.10;;;;;;;14.11;25.39;99817.25;12188558;19;20007;-81
2022/03/03 13:50:36;;;;;;;11.85;7.90;;;;;;;14.01;24.75;99818.06;12238408;19;20362;-80
2022/03/03 13:54:48;;;;;;;12.00;8.18;;;;;;;14.16;25.47;99810.84;12232902;19;20018;-81
2022/03/03 13:59:03;;;;;;;11.30;7.40;;;;;;;13.41;24.72;99808.34;12131839;19;20023;-81
2022/03/03 14:03:16;;;;;;;18.98;7.57;;;;;;;12.50;25.67;99812.94;12230102;19;20006;-81
2022/03/03 14:07:31;;;;;;;11.02;7.35;;;;;;;12.13;26.38;99803.72;12250542;19;20017;-81
2022/03/03 14:11:36;;;;;;;;;;;;;;;11.85;26.88;99789.06;12229212;19;20007;-81
2022/03/03 14:15:42;;;;;;;11.48;7.90;;;;;;;11.62;27.19;99790.16;12237579;19;19907;-81
2022/03/03 14:19:43;;;;;;;12.32;8.13;;;;;;;11.57;27.38;99793.69;12190230;19;20667;-80
2022/03/03 14:23:46;;;;;;;16.27;9.00;;;;;;;11.51;27.67;99788.34;12198504;19;20011;-80
2022/03/03 14:27:49;;;;;;;13.25;8.13;;;;;;;11.44;28.10;99790.47;12229454;19;20112;-83
2022/03/03 14:32:14;;;;;;;15.57;6.97;;;;;;;11.33;28.31;99787.59;12213836;19;20014;-83
2022/03/03 14:36:23;;;;;;;16.25;7.05;;;;;;;11.32;27.90;99780.38;12231189;19;20010;-83
2022/03/03 14:40:30;;;;;;;13.55;7.07;;;;;;;11.12;27.74;99775.44;12224602;19;20007;-82
2022/03/03 14:44:38;;;;;;;10.20;5.95;;;;;;;11.18;27.97;99781.84;12221420;19;20483;-83
2022/03/03 14:48:44;;;;;;;11.43;6.47;;;;;;;11.27;27.71;99776.72;12238092;19;20014;-82
2022/03/03 14:52:47;;;;;;;10.63;5.70;;;;;;;11.79;27.61;99782.63;12210330;19;20039;-83
2022/03/03 14:56:48;;;;;;;14.27;7.87;;;;;;;11.97;26.34;99775.13;12215632;19;20034;-84
2022/03/03 15:00:53;;;;;;;13.25;7.50;;;;;;;11.99;27.35;99784.00;12226018;19;20271;-83
2022/03/03 15:04:56;;;;;;;;;;;;;;;11.92;26.73;99775.06;12187214;19;20014;-82
2022/03/03 15:08:59;;;;;;;16.42;7.00;;;;;;;12.16;26.94;99768.13;12213121;19;19986;-83
2022/03/03 15:13:02;;;;;;;11.50;7.18;;;;;;;12.75;26.40;99770.84;12212988;19;20010;-83
2022/03/03 15:17:07;;;;;;;14.52;7.93;;;;;;;12.81;26.54;99762.59;12186922;19;20017;-83
2022/03/03 15:21:09;;;;;;;13.55;6.85;;;;;;;13.23;26.39;99766.16;12226403;19;20017;-83
2022/03/03 15:25:11;;;;;;;11.27;7.45;;;;;;;13.47;26.73;99760.22;12228189;19;20472;-83
2022/03/03 15:29:16;;;;;;;11.98;7.70;;;;;;;13.47;25.79;99762.16;12202636;19;20312;-83
2022/03/03 15:37:51;;;;;;;9.77;6.88;;;;;;;13.60;26.44;99765.28;12211161;19;20079;-84
2022/03/03 15:41:56;;;;;;;10.85;6.78;;;;;;;13.31;26.33;99755.72;12234419;19;20129;-83
2022/03/03 15:45:58;;;;;;;11.80;6.97;;;;;;;12.71;26.65;99752.31;12234661;19;20021;-83
2022/03/03 15:50:00;;;;;;;11.80;7.30;;;;;;;12.34;27.39;99749.50;12213179;19;20022;-82
2022/03/03 15:54:02;;;;;;;13.10;7.70;;;;;;;11.80;27.26;99742.88;12225281;19;20018;-81
2022/03/03 15:58:04;;;;;;;12.70;7.32;;;;;;;11.59;27.80;99736.28;12219304;19;20014;-81
2022/03/03 16:02:08;;;;;;;13.07;7.32;;;;;;;11.43;28.05;99736.38;12203223;19;20022;-81
2022/03/03 16:06:11;;;;;;;14.00;7.07;;;;;;;11.16;28.16;99740.75;12215799;19;20007;-81
2022/03/03 16:10:13;;;;;;;11.05;6.63;;;;;;;10.94;28.41;99745.38;12229623;19;20025;-83
2022/03/03 16:14:15;;;;;;;11.38;7.30;;;;;;;10.83;29.02;99754.63;12205897;19;20010;-83
2022/03/03 16:18:23;;;;;;;12.65;6.97;;;;;;;10.64;29.52;99751.28;12231533;19;20036;-83
2022/03/03 16:22:33;;;;;;;11.10;6.50;;;;;;;10.48;29.33;99751.03;12225156;19;20585;-83
2022/03/03 16:26:36;;;;;;;12.43;7.20;;;;;;;10.32;30.11;99754.63;12216800;19;20302;-83
2022/03/03 16:30:38;;;;;;;13.63;7.18;;;;;;;10.20;30.24;99762.94;12233611;19;20014;-83
2022/03/03 16:34:53;;;;;;;12.02;7.07;;;;;;;10.04;30.42;99759.06;12215172;19;20154;-81
2022/03/03 16:38:55;;;;;;;13.00;6.63;;;;;;;9.92;30.63;99758.28;12240079;19;20014;-83
2022/03/03 16:42:57;;;;;;;10.53;6.70;;;;;;;9.70;30.91;99763.66;12243284;19;20006;-82
2022/03/03 16:46:59;;;;;;;13.05;7.38;;;;;;;9.47;31.50;99761.00;12206180;19;20011;-83
2022/03/03 16:51:01;;;;;;;11.30;7.40;;;;;;;9.24;31.76;99767.38;12232437;19;20010;-83
2022/03/03 16:55:04;;;;;;;14.02;7.38;;;;;;;9.02;31.94;99762.50;12225821;19;20002;-82
2022/03/03 16:59:06;;;;;;;11.60;6.88;;;;;;;8.78;32.39;99767.19;12216240;19;20003;-83
2022/03/03 17:03:08;;;;;;;12.00;6.85;;;;;;;8.54;32.96;99769.09;12239818;19;20010;-82
2022/03/03 17:07:10;;;;;;;9.65;5.00;;;;;;;8.28;33.19;99767.59;12232097;19;19999;-82
2022/03/03 17:11:17;;;;;;;11.55;7.45;;;;;;;8.02;33.48;99771.56;12215426;19;20027;-83
2022/03/03 17:15:24;;;;;;;13.10;6.55;;;;;;;7.75;33.91;99777.44;12226697;19;20029;-83
2022/03/03 17:19:27;;;;;;;12.77;7.40;;;;;;;7.51;34.16;99770.19;12221973;19;20014;-82
2022/03/03 17:23:30;;;;;;;14.40;8.40;;;;;;;7.28;34.38;99790.91;12182646;19;20010;-82
2022/03/03 17:27:33;;;;;;;;;;;;;;;7.07;34.47;99789.47;12201290;19;20099;-83
2022/03/03 17:31:36;;;;;;;16.60;7.60;;;;;;;6.89;34.79;99783.13;12222016;19;19922;-82
2022/03/03 17:35:38;;;;;;;14.38;8.25;;;;;;;6.69;35.44;99797.84;12201298;19;20065;-82
2022/03/03 17:39:42;;;;;;;16.33;7.68;;;;;;;6.56;35.97;99804.28;12225789;19;20078;-83
2022/03/03 17:43:44;;;;;;;13.13;6.88;;;;;;;6.42;36.39;99805.47;12208371;19;20014;-82
2022/03/03 17:47:45;;;;;;;11.68;7.50;;;;;;;6.27;37.11;99808.53;12223013;19;20006;-82
2022/03/03 17:51:48;;;;;;;13.90;8.27;;;;;;;6.13;37.35;99810.53;12223857;19;20125;-82
2022/03/03 17:55:50;;;;;;;14.27;8.43;;;;;;;6.00;37.47;99817.97;12201357;19;20010;-82
2022/03/03 17:59:51;;;;;;;18.30;8.70;;;;;;;5.87;38.03;99819.69;12225220;19;20010;-82
2022/03/03 18:03:53;;;;;;;15.25;8.20;;;;;;;5.74;38.56;99819.78;12222542;19;20011;-83
2022/03/03 18:07:55;;;;;;;16.13;8.80;;;;;;;5.63;38.63;99820.47;12208037;19;20015;-82
2022/03/03 18:11:57;;;;;;;15.05;8.32;;;;;;;5.56;39.14;99823.22;12231434;19;20007;-82
2022/03/03 18:15:58;;;;;;;15.25;8.32;;;;;;;5.54;38.97;99825.34;12229645;19;20002;-83
2022/03/03 18:20:00;;;;;;;115.97;49.78;;;;;;;5.51;39.24;99827.66;12208854;19;20058;-83
2022/03/03 18:24:03;;;;;;;197.57;84.30;;;;;;;5.44;39.66;99841.34;12231573;19;20535;-83
2022/03/03 18:28:05;;;;;;;85.97;36.42;;;;;;;5.36;39.92;99839.69;12229403;19;20001;-82
2022/03/03 18:32:12;;;;;;;32.08;14.88;;;;;;;5.27;40.39;99849.19;12226964;19;20010;-82
2022/03/03 18:36:14;;;;;;;18.20;10.25;;;;;;;5.21;40.58;99850.88;12243901;19;20009;-83
2022/03/03 18:40:22;;;;;;;17.77;9.32;;;;;;;5.16;40.85;99852.56;12239945;19;20010;-82
2022/03/03 18:44:34;;;;;;;13.77;8.10;;;;;;;5.05;41.35;99847.75;12218883;19;20011;-83
2022/03/03 18:48:44;;;;;;;15.27;7.57;;;;;;;4.91;41.90;99850.53;12232376;19;20023;-81